Time;durP1;ratioP1;P1;durP2;ratioP2;P2;SDS_P1;SDS_P2;PMS_P1;PMS_P2;Temp;Humidity;BMP_temperature;BMP_pressure;BME280_temperature;BME280_humidity;BME280_pressure;Samples;Min_cycle;Max_cycle;Signal;HPM_P1;HPM_P2
2022/04/10 00:00:08;;;;;;;2.57;1.40;;;7.70;42.70;;;;;;5074361;28;20193;-33
2022/04/10 00:02:33;;;;;;;2.15;1.40;;;7.70;43.00;;;;;;5074309;28;20169;-33
2022/04/10 00:04:59;;;;;;;1.30;0.70;;;7.70;42.80;;;;;;5074444;28;20631;-33
2022/04/10 00:07:25;;;;;;;1.20;0.63;;;7.80;42.90;;;;;;5074349;28;20180;-33
2022/04/10 00:09:50;;;;;;;1.60;1.00;;;7.90;42.40;;;;;;5074240;28;20196;-34
2022/04/10 00:12:16;;;;;;;1.40;0.60;;;8.00;42.20;;;;;;5074078;28;20174;-33
2022/04/10 00:14:42;;;;;;;1.23;0.60;;;8.00;42.00;;;;;;5074191;28;20207;-33
2022/04/10 00:17:08;;;;;;;2.20;1.00;;;8.00;42.20;;;;;;5074207;28;20182;-33
2022/04/10 00:19:33;;;;;;;2.97;0.73;;;7.90;42.50;;;;;;5074085;28;20317;-33
2022/04/10 00:21:59;;;;;;;1.20;0.50;;;7.90;42.70;;;;;;5073895;28;20161;-33
2022/04/10 00:24:25;;;;;;;2.33;1.10;;;7.80;42.50;;;;;;5074056;28;20165;-33
2022/04/10 00:26:52;;;;;;;1.30;0.80;;;7.80;42.40;;;;;;5073992;28;20166;-33
2022/04/10 00:29:18;;;;;;;1.73;0.93;;;7.80;42.60;;;;;;5073846;28;20193;-33
2022/04/10 00:31:44;;;;;;;1.30;0.70;;;7.80;42.30;;;;;;5073638;28;20642;-33
2022/04/10 00:34:11;;;;;;;3.38;1.40;;;7.80;42.30;;;;;;5073780;28;20399;-34
2022/04/10 00:36:36;;;;;;;1.70;0.82;;;7.80;42.20;;;;;;5073809;28;20218;-33
2022/04/10 00:39:03;;;;;;;1.77;0.70;;;7.80;42.20;;;;;;5073607;28;20204;-33
2022/04/10 00:41:30;;;;;;;1.65;0.88;;;7.80;42.10;;;;;;5073446;28;20218;-34
2022/04/10 00:44:07;;;;;;;1.10;0.40;;;7.90;41.90;;;;;;5073548;28;20173;-34
2022/04/10 00:46:33;;;;;;;1.38;0.82;;;8.00;41.90;;;;;;5073556;28;20165;-33
2022/04/10 00:48:58;;;;;;;4.95;1.45;;;7.90;41.90;;;;;;5073767;28;20197;-33
2022/04/10 00:51:40;;;;;;;5.23;2.37;;;7.80;42.20;;;;;;5074178;28;20185;-33
2022/04/10 00:54:17;;;;;;;5.20;2.55;;;7.70;42.40;;;;;;5073999;28;20223;-33
2022/04/10 00:56:45;;;;;;;1.60;0.65;;;7.80;42.20;;;;;;5073492;28;20191;-33
2022/04/10 00:59:11;;;;;;;1.48;0.90;;;7.80;42.00;;;;;;5073199;28;20207;-33
2022/04/10 01:01:38;;;;;;;2.30;1.10;;;7.90;42.10;;;;;;5073050;28;20301;-33
2022/04/10 01:04:05;;;;;;;2.20;1.50;;;8.00;41.70;;;;;;5073234;28;20183;-33
2022/04/10 01:06:35;;;;;;;2.00;1.30;;;8.10;41.80;;;;;;5073223;28;20697;-33
2022/04/10 01:09:05;;;;;;;2.72;1.92;;;8.10;41.90;;;;;;5073090;28;20314;-34
2022/04/10 01:11:33;;;;;;;3.17;1.67;;;8.00;41.80;;;;;;5073185;28;20169;-33
2022/04/10 01:14:00;;;;;;;1.63;0.80;;;8.00;42.10;;;;;;5073184;28;20176;-33
2022/04/10 01:16:27;;;;;;;1.20;0.60;;;8.00;42.10;;;;;;5073082;28;20181;-33
2022/04/10 01:18:54;;;;;;;1.63;0.75;;;8.00;41.90;;;;;;5072778;28;20201;-33
2022/04/10 01:21:26;;;;;;;2.08;1.10;;;8.00;41.80;;;;;;5072834;28;20169;-33
2022/04/10 01:23:53;;;;;;;2.13;1.27;;;8.00;41.90;;;;;;5072942;28;20169;-34
2022/04/10 01:26:20;;;;;;;1.65;0.75;;;8.00;41.80;;;;;;5072852;28;20704;-33
2022/04/10 01:29:03;;;;;;;1.30;0.52;;;7.90;41.90;;;;;;5072817;28;20256;-34
2022/04/10 01:31:31;;;;;;;1.25;0.73;;;7.90;41.80;;;;;;5072923;28;20192;-33
2022/04/10 01:34:02;;;;;;;1.30;0.60;;;7.90;41.80;;;;;;5073003;28;20187;-33
2022/04/10 01:36:29;;;;;;;2.42;1.02;;;8.00;41.90;;;;;;5072853;28;20704;-33
2022/04/10 01:38:57;;;;;;;1.20;0.68;;;7.90;42.00;;;;;;5072494;28;20205;-33
2022/04/10 01:41:25;;;;;;;2.30;1.10;;;8.00;42.10;;;;;;5072341;28;20166;-33
2022/04/10 01:43:52;;;;;;;1.40;0.88;;;8.00;41.90;;;;;;5072369;28;20173;-33
2022/04/10 01:46:19;;;;;;;2.20;1.38;;;8.10;41.90;;;;;;5072730;28;20189;-34
2022/04/10 01:48:45;;;;;;;1.50;1.10;;;8.20;42.00;;;;;;5072323;28;20223;-34
2022/04/10 01:51:12;;;;;;;3.65;0.68;;;8.10;42.20;;;;;;5072183;28;20256;-33
2022/04/10 01:53:38;;;;;;;1.83;1.27;;;8.00;42.30;;;;;;5072484;28;20187;-34
2022/04/10 01:56:05;;;;;;;1.25;0.70;;;8.00;42.30;;;;;;5072278;28;20183;-34
2022/04/10 01:58:33;;;;;;;1.98;1.25;;;8.00;42.40;;;;;;5072155;28;20273;-33
2022/04/10 02:01:07;;;;;;;2.47;1.42;;;7.80;42.90;;;;;;5071799;28;20626;-34
2022/04/10 02:03:34;;;;;;;2.80;1.30;;;7.70;43.20;;;;;;5072528;28;20520;-33
2022/04/10 02:06:02;;;;;;;5.93;2.17;;;7.80;43.00;;;;;;5071585;28;20169;-33
2022/04/10 02:08:29;;;;;;;1.75;1.02;;;7.80;43.00;;;;;;5072174;28;20171;-33
2022/04/10 02:10:54;;;;;;;1.30;1.00;;;7.90;42.60;;;;;;5071827;28;20194;-33
2022/04/10 02:13:20;;;;;;;2.30;1.20;;;7.90;42.50;;;;;;5071986;28;20176;-33
2022/04/10 02:15:46;;;;;;;1.73;1.20;;;7.90;42.80;;;;;;5072168;28;20173;-33
2022/04/10 02:18:12;;;;;;;2.10;1.00;;;7.90;42.80;;;;;;5071945;28;20540;-33
2022/04/10 02:20:38;;;;;;;1.40;0.63;;;7.90;42.40;;;;;;5071737;28;20214;-33
2022/04/10 02:23:04;;;;;;;2.13;0.63;;;7.80;42.40;;;;;;5072068;28;20404;-33
2022/04/10 02:25:29;;;;;;;2.80;1.17;;;7.70;42.80;;;;;;5072028;28;20697;-33
2022/04/10 02:27:55;;;;;;;1.37;0.70;;;7.70;42.80;;;;;;5071836;28;20900;-33
2022/04/10 02:30:21;;;;;;;1.80;0.80;;;7.70;42.50;;;;;;5071733;28;20228;-34
2022/04/10 02:32:47;;;;;;;3.23;0.90;;;7.80;42.40;;;;;;5071802;28;20174;-34
2022/04/10 02:35:13;;;;;;;1.83;0.77;;;7.80;42.30;;;;;;5071991;28;20180;-34
2022/04/10 02:37:40;;;;;;;2.05;1.13;;;7.80;42.30;;;;;;5071878;28;20545;-34
2022/04/10 02:40:07;;;;;;;2.00;1.08;;;7.80;42.30;;;;;;5071524;28;20258;-33
2022/04/10 02:42:34;;;;;;;1.30;0.70;;;7.80;42.40;;;;;;5071467;28;20171;-34
2022/04/10 02:45:01;;;;;;;1.00;0.30;;;7.90;42.10;;;;;;5071767;28;20164;-34
2022/04/10 02:47:26;;;;;;;1.60;1.00;;;7.90;42.20;;;;;;5071816;28;20610;-34
2022/04/10 02:49:52;;;;;;;1.63;1.13;;;7.90;42.00;;;;;;5071718;28;20691;-33
2022/04/10 02:52:18;;;;;;;1.50;0.93;;;7.70;42.30;;;;;;5071604;28;20177;-33
2022/04/10 02:54:44;;;;;;;2.03;1.20;;;7.70;42.40;;;;;;5071682;28;20683;-33
2022/04/10 02:57:11;;;;;;;1.40;0.60;;;7.70;42.10;;;;;;5071412;28;20408;-33
2022/04/10 02:59:37;;;;;;;2.55;0.52;;;7.70;42.30;;;;;;5071657;28;20554;-33
2022/04/10 03:02:03;;;;;;;5.35;1.05;;;7.80;42.00;;;;;;5071563;28;20165;-33
2022/04/10 03:04:28;;;;;;;1.92;1.20;;;7.90;41.90;;;;;;5071598;28;20513;-33
2022/04/10 03:06:54;;;;;;;1.30;0.93;;;7.90;41.60;;;;;;5071572;28;20169;-33
2022/04/10 03:09:20;;;;;;;1.40;0.70;;;8.00;41.30;;;;;;5071591;28;20277;-33
2022/04/10 03:11:45;;;;;;;1.50;0.60;;;7.90;41.70;;;;;;5071272;28;20177;-33
2022/04/10 03:14:11;;;;;;;2.70;0.97;;;7.80;41.60;;;;;;5071553;28;20560;-33
2022/04/10 03:16:37;;;;;;;4.77;1.17;;;7.80;41.80;;;;;;5071427;28;20251;-33
2022/04/10 03:19:03;;;;;;;1.20;0.60;;;7.80;41.80;;;;;;5075133;28;20204;-33
2022/04/10 03:21:29;;;;;;;1.35;0.60;;;7.80;41.60;;;;;;5074992;28;20169;-33
2022/04/10 03:23:55;;;;;;;1.47;1.07;;;7.70;41.80;;;;;;5075140;28;20522;-33
2022/04/10 03:26:20;;;;;;;1.37;0.97;;;7.60;41.90;;;;;;5074970;28;20405;-33
2022/04/10 03:28:46;;;;;;;1.60;0.80;;;7.70;41.70;;;;;;5074957;28;20456;-33
2022/04/10 03:31:12;;;;;;;2.20;1.30;;;7.70;41.90;;;;;;5074828;28;20175;-33
2022/04/10 03:33:37;;;;;;;1.23;0.73;;;7.70;41.60;;;;;;5074999;28;20174;-33
2022/04/10 03:36:04;;;;;;;6.40;0.57;;;7.80;41.60;;;;;;5074918;28;20176;-33
2022/04/10 03:38:29;;;;;;;1.55;0.82;;;7.60;41.60;;;;;;5074831;28;20597;-33
2022/04/10 03:40:55;;;;;;;1.20;0.67;;;7.60;42.00;;;;;;5074386;28;20259;-33
2022/04/10 03:43:21;;;;;;;1.10;0.57;;;7.50;42.10;;;;;;5074808;28;20659;-33
2022/04/10 03:45:46;;;;;;;1.10;0.47;;;7.50;41.90;;;;;;5074788;28;20167;-33
2022/04/10 03:48:12;;;;;;;1.33;0.73;;;7.50;42.10;;;;;;5074694;28;20168;-33
2022/04/10 03:50:38;;;;;;;1.20;0.60;;;7.60;41.90;;;;;;5074485;28;20212;-33
2022/04/10 03:53:04;;;;;;;1.80;0.80;;;7.70;41.80;;;;;;5074668;28;20179;-33
2022/04/10 03:55:32;;;;;;;2.00;1.13;;;7.70;41.60;;;;;;5074536;28;20183;-33
2022/04/10 03:57:58;;;;;;;1.30;0.85;;;7.60;41.50;;;;;;5074670;28;20546;-33
2022/04/10 04:00:23;;;;;;;7.00;1.33;;;7.70;41.50;;;;;;5074325;28;20271;-34
2022/04/10 04:02:49;;;;;;;2.20;1.17;;;7.60;41.40;;;;;;5074383;28;20176;-34
2022/04/10 04:05:15;;;;;;;2.53;1.03;;;7.60;41.70;;;;;;5074380;28;20267;-34
2022/04/10 04:07:42;;;;;;;3.17;1.30;;;7.70;41.50;;;;;;5074387;28;20407;-34
2022/04/10 04:10:08;;;;;;;1.77;0.90;;;7.80;41.30;;;;;;5074130;28;20717;-33
2022/04/10 04:12:35;;;;;;;3.08;1.33;;;7.80;40.90;;;;;;5074216;28;20189;-34
2022/04/10 04:15:00;;;;;;;1.23;0.55;;;7.90;41.00;;;;;;5074220;28;20651;-34
2022/04/10 04:17:26;;;;;;;1.43;0.70;;;8.00;40.70;;;;;;5074162;28;20195;-33
2022/04/10 04:19:53;;;;;;;3.93;1.73;;;8.00;40.30;;;;;;5074126;28;20425;-34
2022/04/10 04:22:19;;;;;;;1.90;0.73;;;7.90;40.60;;;;;;5073925;28;20169;-34
2022/04/10 04:24:45;;;;;;;3.00;1.00;;;7.80;40.30;;;;;;5073994;28;20169;-34
2022/04/10 04:27:11;;;;;;;1.10;0.50;;;7.80;40.60;;;;;;5074043;28;20634;-34
2022/04/10 04:29:36;;;;;;;2.20;1.50;;;7.80;40.60;;;;;;5073283;28;20189;-34
2022/04/10 04:32:02;;;;;;;1.40;0.70;;;7.90;40.40;;;;;;5073797;28;20172;-34
2022/04/10 04:34:28;;;;;;;1.52;1.10;;;8.00;40.40;;;;;;5073846;28;20663;-33
2022/04/10 04:36:54;;;;;;;1.23;0.60;;;8.00;39.80;;;;;;5074098;28;20180;-33
2022/04/10 04:39:20;;;;;;;2.10;0.90;;;7.90;39.90;;;;;;5073390;28;20204;-33
2022/04/10 04:41:46;;;;;;;2.10;1.37;;;7.90;40.40;;;;;;5073505;28;20208;-33
2022/04/10 04:44:12;;;;;;;1.93;1.47;;;7.90;40.20;;;;;;5073904;28;20165;-33
2022/04/10 04:46:37;;;;;;;1.25;0.88;;;7.90;40.20;;;;;;5073616;28;20417;-34
2022/04/10 04:49:04;;;;;;;1.20;0.53;;;7.80;39.90;;;;;;5073755;28;20198;-33
2022/04/10 04:51:34;;;;;;;1.40;0.63;;;7.70;40.70;;;;;;5073351;28;20189;-33
2022/04/10 04:54:03;;;;;;;1.83;0.60;;;7.70;40.80;;;;;;5073314;28;20179;-33
2022/04/10 04:56:29;;;;;;;2.38;0.95;;;7.70;40.60;;;;;;5073399;28;20182;-34
2022/04/10 04:58:55;;;;;;;1.50;1.10;;;7.70;40.80;;;;;;5073454;28;20203;-34
2022/04/10 05:01:22;;;;;;;2.33;0.95;;;7.60;40.90;;;;;;5073178;28;20171;-33
2022/04/10 05:03:49;;;;;;;2.15;0.82;;;7.60;41.00;;;;;;5073301;28;20169;-33
2022/04/10 05:06:15;;;;;;;2.00;1.70;;;7.60;41.00;;;;;;5073145;28;20550;-33
2022/04/10 05:08:41;;;;;;;1.75;0.60;;;7.70;40.90;;;;;;5073041;28;20169;-33
2022/04/10 05:11:11;;;;;;;2.13;0.70;;;7.90;40.60;;;;;;5072868;28;20174;-33
2022/04/10 05:13:36;;;;;;;6.07;1.40;;;7.90;40.10;;;;;;5073019;28;20417;-34
2022/04/10 05:16:03;;;;;;;1.50;1.10;;;7.90;40.10;;;;;;5073080;28;20176;-33
2022/04/10 05:18:29;;;;;;;1.77;0.65;;;7.90;40.30;;;;;;5072870;28;20544;-33
2022/04/10 05:20:54;;;;;;;4.35;1.60;;;7.90;40.10;;;;;;5072607;28;20237;-34
2022/04/10 05:23:20;;;;;;;1.53;0.87;;;7.90;40.40;;;;;;5072928;28;20205;-34
2022/04/10 05:25:47;;;;;;;2.58;0.65;;;7.90;40.30;;;;;;5072934;28;20172;-33
2022/04/10 05:28:14;;;;;;;1.75;1.13;;;8.60;40.60;;;;;;5072807;28;20198;-34
2022/04/10 05:30:41;;;;;;;3.67;1.02;;;8.00;40.30;;;;;;5072594;28;20188;-33
2022/04/10 05:33:06;;;;;;;1.70;0.80;;;8.00;40.10;;;;;;5072673;28;20197;-34
2022/04/10 05:35:32;;;;;;;4.73;1.17;;;8.10;40.20;;;;;;5072935;28;20176;-34
2022/04/10 05:37:58;;;;;;;1.90;1.10;;;8.10;39.90;;;;;;5072837;28;20208;-33
2022/04/10 05:40:24;;;;;;;1.87;1.20;;;8.20;40.10;;;;;;5071603;28;20815;-33
2022/04/10 05:42:49;;;;;;;1.60;1.10;;;8.20;39.90;;;;;;5072291;28;20585;-33
2022/04/10 05:45:15;;;;;;;1.37;0.60;;;8.20;39.80;;;;;;5072523;28;20169;-33
2022/04/10 05:47:41;;;;;;;2.60;1.50;;;8.10;39.80;;;;;;5072395;28;20519;-34
2022/04/10 05:50:09;;;;;;;1.88;0.82;;;8.10;40.10;;;;;;5072140;28;20223;-34
2022/04/10 05:52:45;;;;;;;1.20;0.50;;;8.10;39.70;;;;;;5072564;28;20589;-33
2022/04/10 05:55:14;;;;;;;10.00;1.42;;;8.10;39.90;;;;;;5072694;28;20179;-33
2022/04/10 05:57:40;;;;;;;1.30;0.68;;;8.10;39.70;;;;;;5072442;28;20234;-33
2022/04/10 06:00:10;;;;;;;2.15;0.95;;;8.10;39.90;;;;;;5072133;28;20503;-33
2022/04/10 06:02:36;;;;;;;1.35;0.90;;;8.20;40.30;;;;;;5072080;28;20152;-34
2022/04/10 06:05:03;;;;;;;1.38;1.05;;;8.30;39.60;;;;;;5072177;28;20164;-34
2022/04/10 06:07:28;;;;;;;1.38;1.08;;;8.40;39.30;;;;;;5072128;28;20230;-33
2022/04/10 06:09:54;;;;;;;2.03;1.63;;;8.40;39.30;;;;;;5072011;28;20196;-34
2022/04/10 06:12:20;;;;;;;2.40;1.60;;;8.30;39.50;;;;;;5072190;28;20252;-33
2022/04/10 06:14:45;;;;;;;1.80;1.27;;;8.20;39.90;;;;;;5072132;28;20657;-33
2022/04/10 06:17:11;;;;;;;7.87;1.30;;;8.40;39.40;;;;;;5071454;28;20180;-33
2022/04/10 06:19:37;;;;;;;1.97;0.80;;;8.50;39.40;;;;;;5072029;28;20671;-33
2022/04/10 06:22:03;;;;;;;1.97;1.00;;;8.40;38.90;;;;;;5072170;28;20222;-33
2022/04/10 06:24:28;;;;;;;1.75;0.80;;;8.30;39.30;;;;;;5071948;28;20705;-34
2022/04/10 06:26:54;;;;;;;1.87;0.70;;;8.30;39.50;;;;;;5071937;28;20265;-33
2022/04/10 06:29:20;;;;;;;2.40;1.47;;;8.40;39.40;;;;;;5071814;28;20188;-33
2022/04/10 06:31:46;;;;;;;1.77;0.83;;;8.50;39.20;;;;;;5072202;28;20410;-33
2022/04/10 06:34:12;;;;;;;3.17;1.25;;;8.60;38.70;;;;;;5071764;28;20413;-33
2022/04/10 06:36:39;;;;;;;1.53;0.63;;;8.70;39.10;;;;;;5071776;28;20188;-33
2022/04/10 06:39:05;;;;;;;4.65;1.17;;;8.70;38.60;;;;;;5071510;28;20840;-33
2022/04/10 06:41:32;;;;;;;1.40;1.00;;;8.70;38.60;;;;;;5071669;28;20172;-33
2022/04/10 06:43:57;;;;;;;1.83;1.23;;;8.70;38.70;;;;;;5072069;28;20181;-33
2022/04/10 06:46:24;;;;;;;1.63;0.77;;;8.70;38.80;;;;;;5071709;28;20659;-33
2022/04/10 06:48:50;;;;;;;1.85;1.27;;;8.80;38.80;;;;;;5071879;28;20184;-33
2022/04/10 06:51:19;;;;;;;7.60;1.57;;;8.90;38.20;;;;;;5071407;28;20169;-33
2022/04/10 06:53:45;;;;;;;1.27;0.60;;;9.00;38.80;;;;;;5075157;28;20720;-34
2022/04/10 06:56:11;;;;;;;1.20;0.73;;;9.00;38.50;;;;;;5075737;28;20179;-33
2022/04/10 06:58:37;;;;;;;2.43;1.10;;;9.00;38.60;;;;;;5075616;28;20215;-34
2022/04/10 07:01:02;;;;;;;12.30;1.07;;;9.10;38.70;;;;;;5075509;28;20822;-34
2022/04/10 07:03:29;;;;;;;2.33;0.80;;;9.20;38.90;;;;;;5058039;28;20402;-34
2022/04/10 07:05:54;;;;;;;2.38;0.77;;;9.00;38.30;;;;;;5057600;28;20164;-33
2022/04/10 07:08:20;;;;;;;5.10;1.30;;;9.00;38.10;;;;;;5075512;28;20221;-34
2022/04/10 07:10:45;;;;;;;1.80;1.07;;;9.20;38.80;;;;;;5075282;28;20547;-33
2022/04/10 07:13:18;;;;;;;1.50;0.77;;;9.30;37.80;;;;;;5075480;28;20176;-33
2022/04/10 07:15:45;;;;;;;1.10;0.45;;;9.10;37.40;;;;;;5075335;28;20164;-34
2022/04/10 07:18:11;;;;;;;2.30;1.10;;;9.00;37.70;;;;;;5075349;28;20215;-34
2022/04/10 07:20:37;;;;;;;5.07;1.27;;;8.90;38.80;;;;;;5075198;28;20203;-34
2022/04/10 07:25:47;;;;;;;2.00;1.17;;;8.80;38.70;;;;;;5075123;28;20163;-34
2022/04/10 07:28:12;;;;;;;6.27;1.50;;;8.80;38.70;;;;;;5075128;28;20168;-33
2022/04/10 07:30:38;;;;;;;1.43;1.27;;;9.00;38.30;;;;;;5075040;28;20204;-34
2022/04/10 07:33:04;;;;;;;2.37;1.47;;;9.00;38.10;;;;;;5074988;28;20169;-34
2022/04/10 07:35:30;;;;;;;1.53;0.83;;;9.20;38.50;;;;;;5074991;28;20534;-34
2022/04/10 07:37:55;;;;;;;2.63;1.23;;;9.30;38.10;;;;;;5075027;28;20194;-34
2022/04/10 07:40:21;;;;;;;1.67;1.20;;;9.40;37.90;;;;;;5074612;28;20606;-34
2022/04/10 07:42:47;;;;;;;1.67;1.33;;;9.50;37.90;;;;;;5074752;28;20421;-34
2022/04/10 07:47:59;;;;;;;3.17;1.05;;;9.50;37.60;;;;;;5075191;28;20180;-34
2022/04/10 07:50:25;;;;;;;3.35;1.65;;;9.30;36.80;;;;;;5074518;28;20206;-34
2022/04/10 07:52:51;;;;;;;2.08;1.83;;;9.20;37.80;;;;;;5074755;28;20176;-34
2022/04/10 07:55:17;;;;;;;2.40;1.08;;;9.40;37.60;;;;;;5074790;28;20172;-34
2022/04/10 07:57:43;;;;;;;6.20;2.00;;;9.60;37.20;;;;;;5074527;28;20207;-34
2022/04/10 08:00:10;;;;;;;3.83;1.30;;;9.70;37.30;;;;;;5074476;28;20518;-34
2022/04/10 08:02:38;;;;;;;5.80;1.75;;;9.60;37.10;;;;;;5074620;28;20600;-34
2022/04/10 08:05:04;;;;;;;1.52;0.88;;;9.50;37.00;;;;;;5073484;28;20173;-33
2022/04/10 08:07:30;;;;;;;2.05;1.02;;;9.50;36.80;;;;;;5074302;28;20179;-34
2022/04/10 08:09:56;;;;;;;2.17;1.20;;;9.20;37.40;;;;;;5074509;28;20213;-33
2022/04/10 08:12:21;;;;;;;1.90;1.10;;;8.90;38.20;;;;;;5074170;28;20590;-33
2022/04/10 08:14:48;;;;;;;2.30;1.17;;;9.00;38.30;;;;;;5074366;28;20659;-34
2022/04/10 08:17:14;;;;;;;2.50;1.13;;;9.00;38.10;;;;;;5074560;28;20200;-33
2022/04/10 08:19:40;;;;;;;4.40;1.33;;;9.00;38.00;;;;;;5074257;28;20649;-34
2022/04/10 08:22:06;;;;;;;3.13;1.87;;;9.20;37.90;;;;;;5073995;28;20443;-34
2022/04/10 08:24:32;;;;;;;2.75;1.48;;;9.30;37.70;;;;;;5074444;28;20409;-34
2022/04/10 08:26:59;;;;;;;3.10;1.03;;;9.30;37.70;;;;;;5074498;28;20262;-33
2022/04/10 08:29:25;;;;;;;1.73;1.20;;;9.10;38.00;;;;;;5074511;28;20238;-33
2022/04/10 08:31:51;;;;;;;1.60;1.30;;;9.00;38.20;;;;;;5074344;28;20172;-33
2022/04/10 08:34:17;;;;;;;1.33;1.13;;;9.20;38.00;;;;;;5074515;28;20186;-34
2022/04/10 08:36:43;;;;;;;2.40;1.55;;;9.10;37.80;;;;;;5074166;28;20398;-33
2022/04/10 08:39:08;;;;;;;2.00;1.40;;;9.10;37.70;;;;;;5073780;28;20762;-33
2022/04/10 08:41:37;;;;;;;1.57;0.87;;;9.30;37.70;;;;;;5073955;28;20209;-34
2022/04/10 08:44:04;;;;;;;2.88;2.53;;;9.20;37.10;;;;;;5073807;28;20661;-34
2022/04/10 08:46:31;;;;;;;2.00;1.40;;;9.20;37.80;;;;;;5073667;28;20286;-34
2022/04/10 08:48:58;;;;;;;1.30;0.70;;;9.30;37.70;;;;;;5073645;28;20199;-33
2022/04/10 08:51:25;;;;;;;5.97;2.00;;;9.20;37.80;;;;;;5073450;28;20563;-33
2022/04/10 08:53:54;;;;;;;2.58;1.48;;;9.10;38.10;;;;;;5073707;28;20234;-33
2022/04/10 08:56:20;;;;;;;1.60;1.10;;;9.10;38.40;;;;;;5073756;28;20176;-33
2022/04/10 08:58:45;;;;;;;4.15;1.17;;;9.20;37.90;;;;;;5073170;28;20203;-34
2022/04/10 09:01:11;;;;;;;7.07;2.60;;;9.20;37.60;;;;;;5073176;28;20171;-34
2022/04/10 09:03:38;;;;;;;3.57;2.43;;;9.30;37.60;;;;;;5073366;28;20173;-34
2022/04/10 09:06:06;;;;;;;5.28;2.55;;;9.50;37.70;;;;;;5072827;28;20222;-34
2022/04/10 09:08:32;;;;;;;2.20;1.15;;;9.50;37.30;;;;;;5073027;28;20193;-33
2022/04/10 09:11:03;;;;;;;4.43;2.17;;;9.60;37.20;;;;;;5072964;28;20203;-34
2022/04/10 09:13:32;;;;;;;2.13;1.10;;;9.70;37.20;;;;;;5073590;28;20180;-34
2022/04/10 09:16:19;;;;;;;4.07;2.13;;;9.80;35.70;;;;;;5072884;28;20184;-34
2022/04/10 09:18:46;;;;;;;3.28;1.35;;;9.90;36.70;;;;;;5072797;28;20227;-34
2022/04/10 09:21:12;;;;;;;3.50;2.05;;;10.10;35.60;;;;;;5072812;28;20188;-34
2022/04/10 09:23:38;;;;;;;3.50;2.00;;;10.20;36.20;;;;;;5072982;28;20186;-34
2022/04/10 09:26:03;;;;;;;3.87;1.43;;;10.50;36.10;;;;;;5072786;28;20410;-34
2022/04/10 09:28:47;;;;;;;4.60;1.30;;;10.80;35.00;;;;;;5072745;28;20415;-34
2022/04/10 09:31:31;;;;;;;1.90;1.02;;;11.20;34.60;;;;;;5072814;28;20212;-34
2022/04/10 09:34:08;;;;;;;2.90;1.05;;;11.50;33.70;;;;;;5072638;28;20541;-34
2022/04/10 09:36:48;;;;;;;4.60;1.20;;;11.70;33.80;;;;;;5072543;28;20634;-34
2022/04/10 09:39:16;;;;;;;15.00;10.07;;;11.80;32.90;;;;;;5072266;28;20211;-34
2022/04/10 09:41:43;;;;;;;2.60;2.30;;;11.60;32.20;;;;;;5072662;28;20258;-34
2022/04/10 09:44:12;;;;;;;2.40;1.60;;;11.50;32.60;;;;;;5072725;28;20179;-34
2022/04/10 09:46:38;;;;;;;4.20;1.52;;;11.30;31.20;;;;;;5072680;28;20176;-33
2022/04/10 09:49:10;;;;;;;23.95;4.00;;;11.10;33.90;;;;;;5072320;28;20189;-34
2022/04/10 09:51:36;;;;;;;2.50;1.80;;;11.00;34.20;;;;;;5072140;28;20233;-33
2022/04/10 09:54:06;;;;;;;6.13;2.20;;;11.00;34.50;;;;;;5072307;28;20172;-34
2022/04/10 09:56:32;;;;;;;2.80;1.60;;;10.90;35.20;;;;;;5072370;28;20172;-34
2022/04/10 09:59:01;;;;;;;4.63;1.40;;;10.80;34.60;;;;;;5072211;28;20207;-34
2022/04/10 10:01:31;;;;;;;4.07;2.00;;;10.70;34.70;;;;;;5071944;28;20406;-34
2022/04/10 10:03:57;;;;;;;2.30;1.48;;;10.50;35.50;;;;;;5072521;28;20175;-34
2022/04/10 10:06:24;;;;;;;1.90;1.20;;;10.40;36.10;;;;;;5072107;28;20192;-33
2022/04/10 10:08:51;;;;;;;5.55;1.23;;;10.30;37.20;;;;;;5071792;28;21133;-33
2022/04/10 10:11:17;;;;;;;6.50;1.15;;;10.10;38.80;;;;;;5071928;28;20262;-34
2022/04/10 10:13:43;;;;;;;3.10;2.50;;;9.90;39.20;;;;;;5072135;28;20164;-34
2022/04/10 10:16:10;;;;;;;3.60;1.20;;;9.70;40.70;;;;;;5072574;28;20211;-34
2022/04/10 10:18:37;;;;;;;2.28;0.85;;;9.70;41.00;;;;;;5072244;28;20195;-34
2022/04/10 10:21:03;;;;;;;4.05;2.45;;;10.00;40.50;;;;;;5071913;28;20263;-34
2022/04/10 10:23:29;;;;;;;1.40;0.75;;;10.30;40.70;;;;;;5072243;28;20178;-34
2022/04/10 10:26:07;;;;;;;9.23;1.35;;;10.70;40.60;;;;;;5071878;28;20211;-34
2022/04/10 10:28:39;;;;;;;1.45;0.70;;;11.20;38.20;;;;;;5071577;28;20155;-34
2022/04/10 10:31:19;;;;;;;6.55;1.73;;;11.60;40.00;;;;;;5071930;28;20538;-34
2022/04/10 10:34:05;;;;;;;2.30;1.88;;;11.90;37.40;;;;;;5071969;28;20278;-34
2022/04/10 10:36:31;;;;;;;2.75;0.95;;;12.30;36.80;;;;;;5072261;28;20258;-34
2022/04/10 10:38:58;;;;;;;4.88;1.20;;;12.60;36.40;;;;;;5071760;28;20203;-34
2022/04/10 10:41:24;;;;;;;3.50;1.27;;;12.70;34.30;;;;;;5071651;28;20157;-34
2022/04/10 10:43:50;;;;;;;1.40;0.90;;;12.70;33.60;;;;;;5071737;28;20632;-34
2022/04/10 10:46:32;;;;;;;2.45;1.10;;;12.50;35.60;;;;;;5071850;28;20172;-34
2022/04/10 10:49:18;;;;;;;2.60;1.10;;;12.90;33.50;;;;;;5072007;28;20168;-34
2022/04/10 10:51:45;;;;;;;1.77;1.10;;;12.90;33.00;;;;;;5071453;28;20172;-34
2022/04/10 10:54:18;;;;;;;8.93;3.28;;;13.00;33.60;;;;;;5071544;28;20646;-34
2022/04/10 10:56:46;;;;;;;7.68;3.47;;;13.20;31.80;;;;;;5071636;28;20180;-34
2022/04/10 10:59:33;;;;;;;2.40;1.50;;;13.00;31.50;;;;;;5071492;28;20200;-33
2022/04/10 11:02:02;;;;;;;1.50;0.98;;;12.90;32.30;;;;;;5071294;28;20810;-33
2022/04/10 11:04:38;;;;;;;5.70;2.53;;;12.90;30.70;;;;;;5071489;28;20173;-34
2022/04/10 11:07:23;;;;;;;2.22;1.30;;;12.80;29.90;;;;;;5071493;28;20211;-33
2022/04/10 11:09:58;;;;;;;3.22;1.70;;;12.50;31.20;;;;;;5071467;28;20203;-33
2022/04/10 11:12:48;;;;;;;1.65;0.80;;;12.10;33.60;;;;;;5071584;28;20152;-33
2022/04/10 11:15:18;;;;;;;2.50;0.95;;;11.60;36.00;;;;;;5071667;28;20168;-33
2022/04/10 11:17:44;;;;;;;7.38;1.25;;;11.60;36.10;;;;;;5071373;28;20194;-33
2022/04/10 11:20:11;;;;;;;2.03;1.27;;;11.80;37.80;;;;;;5071260;28;20193;-33
2022/04/10 11:22:47;;;;;;;7.18;1.42;;;12.10;39.90;;;;;;5071449;28;20184;-33
2022/04/10 11:25:16;;;;;;;1.80;0.95;;;12.50;40.80;;;;;;5071468;28;20263;-33
2022/04/10 11:28:01;;;;;;;4.13;1.65;;;12.90;40.10;;;;;;5071251;28;20176;-33
2022/04/10 11:30:40;;;;;;;1.85;0.98;;;13.00;36.90;;;;;;5070973;28;20257;-33
2022/04/10 11:33:10;;;;;;;1.63;0.80;;;12.90;33.20;;;;;;5071270;28;20160;-33
2022/04/10 11:35:38;;;;;;;1.40;0.70;;;12.80;34.70;;;;;;5071395;28;20310;-33
2022/04/10 11:38:13;;;;;;;3.80;1.52;;;12.70;33.70;;;;;;5071840;28;20203;-33
2022/04/10 11:40:41;;;;;;;2.53;1.20;;;12.50;34.60;;;;;;5074465;28;20238;-33
2022/04/10 11:43:08;;;;;;;1.60;1.17;;;12.60;36.70;;;;;;5074750;28;20161;-33
2022/04/10 11:45:35;;;;;;;1.60;0.75;;;12.80;34.00;;;;;;5074829;28;20184;-33
2022/04/10 11:48:04;;;;;;;6.95;1.83;;;12.80;34.30;;;;;;5075115;28;20172;-33
2022/04/10 11:50:30;;;;;;;2.83;1.23;;;13.00;33.50;;;;;;5073835;28;20200;-33
2022/04/10 11:53:07;;;;;;;1.90;1.10;;;13.10;32.50;;;;;;5074884;28;20179;-33
2022/04/10 11:55:37;;;;;;;3.58;0.95;;;13.30;33.40;;;;;;5074745;28;20192;-33
2022/04/10 11:58:16;;;;;;;1.20;0.40;;;13.60;31.00;;;;;;5074456;28;20539;-34
2022/04/10 12:00:52;;;;;;;1.20;0.50;;;13.80;30.70;;;;;;5074521;28;20199;-33
2022/04/10 12:03:19;;;;;;;1.73;0.65;;;13.60;30.50;;;;;;5074756;28;20514;-33
2022/04/10 12:05:45;;;;;;;1.85;0.90;;;13.00;31.40;;;;;;5075503;28;20183;-33
2022/04/10 12:08:11;;;;;;;2.30;0.98;;;12.50;32.50;;;;;;5075219;28;20176;-33
2022/04/10 12:10:37;;;;;;;2.00;1.53;;;12.20;31.80;;;;;;5074423;28;20279;-33
2022/04/10 12:13:04;;;;;;;1.80;0.80;;;11.80;31.20;;;;;;5074585;28;20243;-33
2022/04/10 12:15:30;;;;;;;1.30;0.50;;;11.70;33.40;;;;;;5074198;28;20708;-33
2022/04/10 12:18:06;;;;;;;12.68;1.00;;;11.90;32.20;;;;;;5074084;28;20673;-33
2022/04/10 12:20:33;;;;;;;1.67;0.95;;;12.20;31.70;;;;;;5074065;28;20188;-33
2022/04/10 12:22:59;;;;;;;2.60;1.15;;;12.70;32.20;;;;;;5074162;28;20184;-34
2022/04/10 12:25:26;;;;;;;11.10;3.93;;;13.20;31.90;;;;;;5074661;28;20173;-34
2022/04/10 12:27:52;;;;;;;3.40;1.05;;;13.60;31.80;;;;;;5074276;28;20176;-33
2022/04/10 12:30:18;;;;;;;1.33;0.60;;;13.80;28.70;;;;;;5073828;28;20605;-33
2022/04/10 12:32:44;;;;;;;1.70;1.15;;;14.00;29.70;;;;;;5074006;28;20173;-34
2022/04/10 12:35:12;;;;;;;5.00;1.05;;;14.40;29.50;;;;;;5073929;28;20176;-34
2022/04/10 12:38:02;;;;;;;1.95;1.45;;;14.80;29.30;;;;;;5073744;28;20661;-34
2022/04/10 12:40:28;;;;;;;1.45;0.77;;;15.10;29.40;;;;;;5073426;28;20212;-34
2022/04/10 12:42:59;;;;;;;1.53;0.93;;;15.30;28.70;;;;;;5073848;28;20681;-34
2022/04/10 12:45:32;;;;;;;2.47;1.40;;;15.50;28.70;;;;;;5074030;28;20530;-34
2022/04/10 12:47:58;;;;;;;3.67;1.98;;;15.60;26.00;;;;;;5073643;28;20649;-34
2022/04/10 12:50:26;;;;;;;3.60;1.73;;;15.50;25.90;;;;;;5072888;28;20685;-33
2022/04/10 12:52:55;;;;;;;3.05;1.42;;;15.40;25.80;;;;;;5073584;28;20184;-34
2022/04/10 12:55:36;;;;;;;1.85;1.20;;;15.30;26.70;;;;;;5073348;28;20169;-34
2022/04/10 12:58:04;;;;;;;5.18;1.35;;;14.80;26.60;;;;;;5073460;28;20196;-34
2022/04/10 13:00:35;;;;;;;7.20;1.75;;;14.70;27.30;;;;;;5073099;28;20197;-34